Time;durP1;ratioP1;P1;durP2;ratioP2;P2;SDS_P1;SDS_P2;PMS_P1;PMS_P2;Temp;Humidity;BMP_temperature;BMP_pressure;BME280_temperature;BME280_humidity;BME280_pressure;Samples;Min_cycle;Max_cycle;Signal;HPM_P1;HPM_P2
2022/06/24 00:01:04;;;;;;;;;;;22.90;99.90;;;;;;5041819;28;20721;-81
2022/06/24 00:03:30;;;;;;;;;;;22.80;99.90;;;;;;5051908;28;19964;-81
2022/06/24 00:05:56;;;;;;;;;;;22.90;99.90;;;;;;5053140;28;19928;-81
2022/06/24 00:08:21;;;;;;;;;;;22.90;99.90;;;;;;5042534;28;20268;-81
2022/06/24 00:10:47;;;;;;;;;;;22.90;99.90;;;;;;5051983;28;19975;-81
2022/06/24 00:13:12;;;;;;;;;;;22.80;99.90;;;;;;5041915;28;19920;-81
2022/06/24 00:15:38;;;;;;;;;;;22.80;99.90;;;;;;5041963;28;20382;-82
2022/06/24 00:18:13;;;;;;;;;;;22.70;99.90;;;;;;5035826;28;20011;-82
2022/06/24 00:20:45;;;;;;;;;;;22.60;99.90;;;;;;5041519;28;20327;-82
2022/06/24 00:23:11;;;;;;;;;;;22.70;99.90;;;;;;5052313;28;19928;-82
2022/06/24 00:25:37;;;;;;;;;;;22.60;99.90;;;;;;5052140;28;19927;-82
2022/06/24 00:28:07;;;;;;;;;;;22.50;99.90;;;;;;5051667;28;20012;-82
2022/06/24 00:30:36;;;;;;;;;;;22.50;99.90;;;;;;5050336;28;19925;-82
2022/06/24 00:33:10;;;;;;;;;;;22.40;99.90;;;;;;5050493;28;19974;-82
2022/06/24 00:35:47;;;;;;;;;;;22.30;99.90;;;;;;5051351;28;20019;-81
2022/06/24 00:38:29;;;;;;;;;;;22.30;99.90;;;;;;5040547;28;19952;-81
2022/06/24 00:41:05;;;;;;;;;;;22.20;99.90;;;;;;5049365;28;19924;-81
2022/06/24 00:43:37;;;;;;;;;;;22.20;99.90;;;;;;5042487;28;19924;-81
2022/06/24 00:46:15;;;;;;;;;;;22.10;99.90;;;;;;5050807;28;19920;-81
2022/06/24 00:48:45;;;;;;;;;;;22.10;99.90;;;;;;5051688;28;20305;-81
2022/06/24 00:51:11;;;;;;;;;;;22.00;99.90;;;;;;5042571;28;20387;-81
2022/06/24 00:53:40;;;;;;;;;;;22.00;99.90;;;;;;5051240;28;19921;-81
2022/06/24 00:56:06;;;;;;;;;;;21.90;99.90;;;;;;5042985;28;19936;-81
2022/06/24 00:58:33;;;;;;;;;;;21.90;99.90;;;;;;5041121;28;19920;-80
2022/06/24 01:00:59;;;;;;;;;;;21.80;99.90;;;;;;5051787;28;19929;-81
2022/06/24 01:03:34;;;;;;;;;;;21.70;99.90;;;;;;5051790;28;20269;-80
2022/06/24 01:06:00;;;;;;;;;;;21.70;99.90;;;;;;5041728;28;19931;-82
2022/06/24 01:08:26;;;;;;;;;;;21.60;99.90;;;;;;5051843;28;19924;-81
2022/06/24 01:10:51;;;;;;;;;;;21.80;99.90;;;;;;5040135;28;19921;-81
2022/06/24 01:13:17;;;;;;;;;;;21.50;99.90;;;;;;5050460;28;19928;-81
2022/06/24 01:15:42;;;;;;;;;;;21.50;99.90;;;;;;5041736;28;20339;-81
2022/06/24 01:18:08;;;;;;;;;;;21.40;99.90;;;;;;5050771;28;19924;-82
2022/06/24 01:20:33;;;;;;;;;;;21.40;99.90;;;;;;5050357;28;19921;-81
2022/06/24 01:22:59;;;;;;;;;;;21.40;99.90;;;;;;5042520;28;19920;-82
2022/06/24 01:25:24;;;;;;;;;;;21.40;99.90;;;;;;5052073;28;19924;-80
2022/06/24 01:27:50;;;;;;;;;;;21.30;99.90;;;;;;5041454;28;19917;-81
2022/06/24 01:30:15;;;;;;;;;;;21.20;99.90;;;;;;5041978;28;20356;-82
2022/06/24 01:32:41;;;;;;;;;;;21.20;99.90;;;;;;5051455;28;19967;-81
2022/06/24 01:35:06;;;;;;;;;;;21.20;99.90;;;;;;5050367;28;19970;-81
2022/06/24 01:37:32;;;;;;;;;;;21.10;99.90;;;;;;5041820;28;20386;-81
2022/06/24 01:39:58;;;;;;;;;;;21.10;99.90;;;;;;5041214;28;20011;-82
2022/06/24 01:42:23;;;;;;;;;;;21.00;99.90;;;;;;5049244;28;19925;-81
2022/06/24 01:44:49;;;;;;;;;;;21.00;99.90;;;;;;5041653;28;19920;-81
2022/06/24 01:47:14;;;;;;;;;;;20.90;99.90;;;;;;5040994;28;19959;-82
2022/06/24 01:49:40;;;;;;;;;;;20.90;99.90;;;;;;5050516;28;19920;-81
2022/06/24 01:52:05;;;;;;;;;;;20.90;99.90;;;;;;5050847;28;19921;-82
2022/06/24 01:54:31;;;;;;;;;;;20.90;99.90;;;;;;5041798;28;20384;-82
2022/06/24 01:56:56;;;;;;;;;;;20.90;99.90;;;;;;5050100;28;19966;-83
2022/06/24 01:59:22;;;;;;;;;;;21.00;99.90;;;;;;5051151;28;19928;-82
2022/06/24 02:01:47;;;;;;;;;;;21.30;99.90;;;;;;5050061;28;19924;-82
2022/06/24 02:04:14;;;;;;;;;;;21.00;99.90;;;;;;5041004;28;19928;-81
2022/06/24 02:06:40;;;;;;;;;;;20.90;99.90;;;;;;5036793;28;19943;-81
2022/06/24 02:09:06;;;;;;;;;;;20.90;99.90;;;;;;5039420;28;20376;-81
2022/06/24 02:14:16;;;;;;;;;;;20.80;99.90;;;;;;5044757;28;19920;-81
2022/06/24 02:16:42;;;;;;;;;;;20.80;99.90;;;;;;5049209;28;19966;-81
2022/06/24 02:19:08;;;;;;;;;;;20.70;99.90;;;;;;5040265;28;19928;-82
2022/06/24 02:21:34;;;;;;;;;;;20.70;99.90;;;;;;5049746;28;19932;-82
2022/06/24 02:24:00;;;;;;;;;;;20.70;99.90;;;;;;5040288;28;19921;-82
2022/06/24 02:26:25;;;;;;;;;;;20.70;99.90;;;;;;5046695;28;19920;-82
2022/06/24 02:28:51;;;;;;;;;;;20.60;99.90;;;;;;5051234;28;20292;-81
2022/06/24 02:31:17;;;;;;;;;;;20.60;99.90;;;;;;5041187;28;20311;-82
2022/06/24 02:33:44;;;;;;;;;;;20.50;99.90;;;;;;5040469;28;20295;-81
2022/06/24 02:36:09;;;;;;;;;;;20.60;99.90;;;;;;5040581;28;20421;-81
2022/06/24 02:38:36;;;;;;;;;;;20.60;99.90;;;;;;5040388;28;19920;-80
2022/06/24 02:41:02;;;;;;;;;;;20.60;99.90;;;;;;5041055;28;19923;-80
2022/06/24 02:43:29;;;;;;;;;;;20.50;99.90;;;;;;5041307;28;19929;-81
2022/06/24 02:46:01;;;;;;;;;;;20.50;99.90;;;;;;5049517;28;20015;-80
2022/06/24 02:48:26;;;;;;;;;;;20.50;99.90;;;;;;5046553;28;19928;-80
2022/06/24 02:50:53;;;;;;;;;;;20.50;99.90;;;;;;5053080;28;19920;-80
2022/06/24 02:53:19;;;;;;;;;;;20.50;99.90;;;;;;5053775;28;19932;-80
2022/06/24 02:55:46;;;;;;;;;;;20.50;99.90;;;;;;5045170;28;20014;-80
2022/06/24 02:58:11;;;;;;;;;;;20.50;99.90;;;;;;5053045;28;20011;-80
2022/06/24 03:00:39;;;;;;;;;;;20.50;99.90;;;;;;5054480;28;20008;-80
2022/06/24 03:03:05;;;;;;;;;;;20.50;99.90;;;;;;5044119;28;20291;-80
2022/06/24 03:05:30;;;;;;;;;;;20.40;99.90;;;;;;5053537;28;20004;-80
2022/06/24 03:07:56;;;;;;;;;;;20.40;99.90;;;;;;5054196;28;20012;-81
2022/06/24 03:10:22;;;;;;;;;;;20.40;99.90;;;;;;5053421;28;19920;-81
2022/06/24 03:12:47;;;;;;;;;;;20.30;99.90;;;;;;5048738;28;19923;-81
2022/06/24 03:15:13;;;;;;;;;;;20.30;99.90;;;;;;5053492;28;19967;-80
2022/06/24 03:17:39;;;;;;;;;;;20.30;99.90;;;;;;5043867;28;20311;-81
2022/06/24 03:20:05;;;;;;;;;;;20.30;99.90;;;;;;5043036;28;19991;-80
2022/06/24 03:22:31;;;;;;;;;;;20.30;99.90;;;;;;5044290;28;19925;-80
2022/06/24 03:24:56;;;;;;;;;;;20.40;99.90;;;;;;5054430;28;19924;-80
2022/06/24 03:27:22;;;;;;;;;;;20.40;99.90;;;;;;5042696;28;19928;-80
2022/06/24 03:29:47;;;;;;;;;;;20.50;99.90;;;;;;5043627;28;19920;-68
2022/06/24 03:32:14;;;;;;;;;;;20.50;99.90;;;;;;5053598;28;19927;-68
2022/06/24 03:34:40;;;;;;;;;;;20.50;99.90;;;;;;5052130;28;19921;-68
2022/06/24 03:37:05;;;;;;;;;;;20.60;99.90;;;;;;5052406;28;19944;-69
2022/06/24 03:39:31;;;;;;;;;;;20.70;99.90;;;;;;5052502;28;19921;-66
2022/06/24 03:41:57;;;;;;;;;;;20.50;99.90;;;;;;5052295;28;19928;-67
2022/06/24 03:44:22;;;;;;;;;;;20.50;99.90;;;;;;5040466;28;20446;-74
2022/06/24 03:46:47;;;;;;;;;;;20.40;99.90;;;;;;5052048;28;20400;-73
2022/06/24 03:49:14;;;;;;;;;;;20.40;99.90;;;;;;5042335;28;19917;-79
2022/06/24 03:51:40;;;;;;;;;;;20.50;99.90;;;;;;5052263;28;19931;-73
2022/06/24 03:54:05;;;;;;;;;;;20.50;99.90;;;;;;5052787;28;20304;-71
2022/06/24 03:56:31;;;;;;;;;;;20.50;99.90;;;;;;5051742;28;19921;-71
2022/06/24 03:58:57;;;;;;;;;;;20.50;99.90;;;;;;5039494;28;20408;-70
2022/06/24 04:01:23;;;;;;;;;;;20.60;99.90;;;;;;5051562;28;20012;-72
2022/06/24 04:03:48;;;;;;;;;;;20.60;99.90;;;;;;5052346;28;20004;-78
2022/06/24 04:06:14;;;;;;;;;;;20.70;99.90;;;;;;5053122;28;20344;-80
2022/06/24 04:08:39;;;;;;;;;;;20.60;99.90;;;;;;5051723;28;19979;-78
2022/06/24 04:11:09;;;;;;;;;;;20.70;99.90;;;;;;5052131;28;19925;-74
2022/06/24 04:13:34;;;;;;;;;;;20.60;99.90;;;;;;5041982;28;19920;-76
2022/06/24 04:16:00;;;;;;;;;;;20.60;99.90;;;;;;5042004;28;19971;-76
2022/06/24 04:18:25;;;;;;;;;;;20.70;99.90;;;;;;5042073;28;19920;-77
2022/06/24 04:20:51;;;;;;;;;;;20.50;99.90;;;;;;5043011;28;20272;-77
2022/06/24 04:23:16;;;;;;;;;;;20.60;99.90;;;;;;5051250;28;19920;-75
2022/06/24 04:25:42;;;;;;;;;;;20.40;99.90;;;;;;5052576;28;20253;-75
2022/06/24 04:28:08;;;;;;;;;;;20.30;99.90;;;;;;5052680;28;19927;-80
2022/06/24 04:30:34;;;;;;;;;;;20.20;99.90;;;;;;5041974;28;19928;-75
2022/06/24 04:32:59;;;;;;;;;;;20.10;99.90;;;;;;5052541;28;19929;-77
2022/06/24 04:35:25;;;;;;;;;;;20.10;99.90;;;;;;5051330;28;19921;-77
2022/06/24 04:37:50;;;;;;;;;;;20.00;99.90;;;;;;5050988;28;19971;-77
2022/06/24 04:40:16;;;;;;;;;;;20.00;99.90;;;;;;5051451;28;20287;-78
2022/06/24 04:42:44;;;;;;;;;;;20.00;99.90;;;;;;5042055;28;19925;-78
2022/06/24 04:45:10;;;;;;;;;;;19.90;99.90;;;;;;5051734;28;19921;-79
2022/06/24 04:47:35;;;;;;;;;;;19.80;99.90;;;;;;5041937;28;19962;-79
2022/06/24 04:50:01;;;;;;;;;;;19.70;99.90;;;;;;5050735;28;19959;-78
2022/06/24 04:52:26;;;;;;;;;;;19.70;99.90;;;;;;5050544;28;20415;-78
2022/06/24 04:54:52;;;;;;;;;;;19.60;99.90;;;;;;5043114;28;20386;-79
2022/06/24 04:57:18;;;;;;;;;;;19.60;99.90;;;;;;5051640;28;19920;-81
2022/06/24 04:59:43;;;;;;;;;;;19.80;99.90;;;;;;5051317;28;20051;-79
2022/06/24 05:02:09;;;;;;;;;;;19.60;99.90;;;;;;5051736;28;20341;-77
2022/06/24 05:04:35;;;;;;;;;;;19.50;99.90;;;;;;5051246;28;19966;-78
2022/06/24 05:07:01;;;;;;;;;;;19.70;99.90;;;;;;5050656;28;19925;-80
2022/06/24 05:09:27;;;;;;;;;;;19.70;99.90;;;;;;5040991;28;19971;-80
2022/06/24 05:11:53;;;;;;;;;;;19.60;99.90;;;;;;5041100;28;19932;-81
2022/06/24 05:14:18;;;;;;;;;;;19.60;99.90;;;;;;5038483;28;20407;-78
2022/06/24 05:16:44;;;;;;;;;;;19.60;99.90;;;;;;5051529;28;19928;-78
2022/06/24 05:19:10;;;;;;;;;;;19.60;99.90;;;;;;5058110;28;20023;-82
2022/06/24 05:21:36;;;;;;;;;;;19.50;99.90;;;;;;5062027;28;19924;-79
2022/06/24 05:24:01;;;;;;;;;;;19.50;99.90;;;;;;5059200;28;20019;-77
2022/06/24 05:26:27;;;;;;;;;;;19.50;99.90;;;;;;5062354;28;19925;-80
2022/06/24 05:28:53;;;;;;;;;;;19.40;99.90;;;;;;5059954;28;20031;-75
2022/06/24 05:31:18;;;;;;;;;;;19.40;99.90;;;;;;5044247;28;20007;-74
2022/06/24 05:33:44;;;;;;;;;;;19.80;99.90;;;;;;5058940;28;19927;-79
2022/06/24 05:36:09;;;;;;;;;;;19.40;99.90;;;;;;5042989;28;20002;-76
2022/06/24 05:38:35;;;;;;;;;;;19.30;99.90;;;;;;5062422;28;20363;-78
2022/06/24 05:41:01;;;;;;;;;;;19.30;99.90;;;;;;5059295;28;19929;-82
2022/06/24 05:43:27;;;;;;;;;;;19.40;99.90;;;;;;5059103;28;19920;-83
2022/06/24 05:45:52;;;;;;;;;;;19.50;99.90;;;;;;5062173;28;20330;-80
2022/06/24 05:48:18;;;;;;;;;;;19.40;99.90;;;;;;5037798;28;19928;-86
2022/06/24 05:50:43;;;;;;;;;;;19.50;99.90;;;;;;5041561;28;19920;-84
2022/06/24 05:56:00;;;;;;;;;;;19.30;99.90;;;;;;5054627;28;19921;-84
2022/06/24 05:58:29;;;;;;;;;;;19.40;99.90;;;;;;5041406;28;19920;-85
2022/06/24 06:00:55;;;;;;;;;;;19.40;99.90;;;;;;5044044;28;20338;-84
2022/06/24 06:03:24;;;;;;;;;;;19.40;99.90;;;;;;5040134;28;20039;-85
2022/06/24 06:05:50;;;;;;;;;;;19.30;99.90;;;;;;5041538;28;20365;-89
2022/06/24 06:08:16;;;;;;;;;;;19.40;99.90;;;;;;5044066;28;19960;-91
2022/06/24 06:10:43;;;;;;;;;;;19.30;99.90;;;;;;5042186;28;19924;-88
2022/06/24 06:13:12;;;;;;;;;;;19.30;99.90;;;;;;5061971;28;19924;-92
2022/06/24 06:15:42;;;;;;;;;;;19.20;99.90;;;;;;5061026;28;19921;-92
2022/06/24 06:18:07;;;;;;;;;;;19.20;99.90;;;;;;5040427;28;19922;-90
2022/06/24 06:20:33;;;;;;;;;;;19.20;99.90;;;;;;5054365;28;20050;-90
2022/06/24 06:22:59;;;;;;;;;;;19.20;99.90;;;;;;5064571;28;20250;-89
2022/06/24 06:25:24;;;;;;;;;;;19.30;99.90;;;;;;5039040;28;19928;-85
2022/06/24 06:27:50;;;;;;;;;;;19.20;99.90;;;;;;5046924;28;19921;-87
2022/06/24 06:30:15;;;;;;;;;;;19.10;99.90;;;;;;5046601;28;20495;-89
2022/06/24 06:32:41;;;;;;;;;;;19.20;99.90;;;;;;5058832;28;19956;-91
2022/06/24 06:35:07;;;;;;;;;;;19.10;99.90;;;;;;5057641;28;19920;-92
2022/06/24 06:37:32;;;;;;;;;;;19.10;99.90;;;;;;5057821;28;19921;-93
2022/06/24 06:39:58;;;;;;;;;;;19.00;99.90;;;;;;5046921;28;19927;-86
2022/06/24 06:42:23;;;;;;;;;;;19.00;99.90;;;;;;5048679;28;19928;-89
2022/06/24 06:44:49;;;;;;;;;;;19.50;99.90;;;;;;5046133;28;19963;-82
2022/06/24 06:47:14;;;;;;;;;;;19.20;99.90;;;;;;5054962;28;19967;-83
2022/06/24 06:49:40;;;;;;;;;;;19.20;99.90;;;;;;5041627;28;20011;-82
2022/06/24 06:52:06;;;;;;;;;;;19.30;99.90;;;;;;5060822;28;19935;-82
2022/06/24 06:54:31;;;;;;;;;;;19.30;99.90;;;;;;5055238;28;20015;-85
2022/06/24 06:56:57;;;;;;;;;;;19.30;99.90;;;;;;5055953;28;20485;-78
2022/06/24 06:59:22;;;;;;;;;;;19.50;99.90;;;;;;5054593;28;19928;-80
2022/06/24 07:01:48;;;;;;;;;;;19.50;99.90;;;;;;5043924;28;20007;-86
2022/06/24 07:04:14;;;;;;;;;;;19.60;99.90;;;;;;5055622;28;19920;-86
2022/06/24 07:06:40;;;;;;;;;;;19.60;99.90;;;;;;5045576;28;19927;-80
2022/06/24 07:09:05;;;;;;;;;;;19.60;99.90;;;;;;5044763;28;19920;-80
2022/06/24 07:11:31;;;;;;;;;;;19.60;99.90;;;;;;5053834;28;20493;-82
2022/06/24 07:13:56;;;;;;;;;;;19.60;99.90;;;;;;5054741;28;19928;-89
2022/06/24 07:16:22;;;;;;;;;;;19.60;99.90;;;;;;5044811;28;19921;-88
2022/06/24 07:18:47;;;;;;;;;;;19.70;99.90;;;;;;5061377;28;20330;-76
2022/06/24 07:21:13;;;;;;;;;;;19.70;99.90;;;;;;5062978;28;19921;-77
2022/06/24 07:23:39;;;;;;;;;;;19.80;99.90;;;;;;5066550;28;19971;-75
2022/06/24 07:26:05;;;;;;;;;;;19.80;99.90;;;;;;5048506;28;19920;-74
2022/06/24 07:28:30;;;;;;;;;;;19.80;99.90;;;;;;5045179;28;19928;-84
2022/06/24 07:30:56;;;;;;;;;;;19.80;99.90;;;;;;5047489;28;20253;-86
2022/06/24 07:33:23;;;;;;;;;;;19.80;99.90;;;;;;5044594;28;19982;-88
2022/06/24 07:35:49;;;;;;;;;;;19.80;99.90;;;;;;5062761;28;19924;-87
2022/06/24 07:38:14;;;;;;;;;;;19.80;99.90;;;;;;5061850;28;19916;-76
2022/06/24 07:40:40;;;;;;;;;;;19.70;99.90;;;;;;5044301;28;20391;-79
2022/06/24 07:43:06;;;;;;;;;;;19.70;99.90;;;;;;5061049;28;20283;-77
2022/06/24 07:45:31;;;;;;;;;;;19.70;99.90;;;;;;5062146;28;20372;-74
2022/06/24 07:47:57;;;;;;;;;;;19.70;99.90;;;;;;5046238;28;19925;-82
2022/06/24 07:50:22;;;;;;;;;;;19.80;99.90;;;;;;5062532;28;19943;-85
2022/06/24 07:52:48;;;;;;;;;;;19.80;99.90;;;;;;5045198;28;19920;-83
2022/06/24 07:57:57;;;;;;;;;;;19.80;99.90;;;;;;5062055;28;19920;-78
2022/06/24 08:00:23;;;;;;;;;;;19.80;99.90;;;;;;5062174;28;20295;-79
2022/06/24 08:02:48;;;;;;;;;;;19.90;99.90;;;;;;5043614;28;19924;-81
2022/06/24 08:05:15;;;;;;;;;;;19.90;99.90;;;;;;5044331;28;19921;-84
2022/06/24 08:07:40;;;;;;;;;;;19.90;99.90;;;;;;5041712;28;19928;-83
2022/06/24 08:10:06;;;;;;;;;;;20.00;99.90;;;;;;5060570;28;19921;-83
2022/06/24 08:12:32;;;;;;;;;;;20.10;99.90;;;;;;5064916;28;20395;-84
2022/06/24 08:14:57;;;;;;;;;;;20.10;99.90;;;;;;5043123;28;20287;-84
2022/06/24 08:17:23;;;;;;;;;;;20.10;99.90;;;;;;5063945;28;20076;-84
2022/06/24 08:19:48;;;;;;;;;;;20.10;99.90;;;;;;5062782;28;19931;-85
2022/06/24 08:22:14;;;;;;;;;;;20.10;99.90;;;;;;5061268;28;19916;-85
2022/06/24 08:24:40;;;;;;;;;;;20.00;99.90;;;;;;5042786;28;19986;-83
2022/06/24 08:27:06;;;;;;;;;;;20.00;99.90;;;;;;5062032;28;19928;-83
2022/06/24 08:29:31;;;;;;;;;;;19.90;99.90;;;;;;5063526;28;19920;-84
2022/06/24 08:31:57;;;;;;;;;;;19.90;99.90;;;;;;5061182;28;19972;-83
2022/06/24 08:34:22;;;;;;;;;;;19.80;99.90;;;;;;5063951;28;19974;-85
2022/06/24 08:36:48;;;;;;;;;;;19.70;99.90;;;;;;5060919;28;19983;-82
2022/06/24 08:39:13;;;;;;;;;;;19.70;99.90;;;;;;5062849;28;19927;-80
2022/06/24 08:41:41;;;;;;;;;;;19.70;99.90;;;;;;5062904;28;19924;-80
2022/06/24 08:44:07;;;;;;;;;;;19.50;99.90;;;;;;5061174;28;19966;-80
2022/06/24 08:46:33;;;;;;;;;;;19.50;99.90;;;;;;5063474;28;19920;-78
2022/06/24 08:48:59;;;;;;;;;;;19.40;99.90;;;;;;5057067;28;19925;-80
2022/06/24 08:51:26;;;;;;;;;;;19.30;99.90;;;;;;5063683;28;19967;-80
2022/06/24 08:53:55;;;;;;;;;;;19.20;99.90;;;;;;5057620;28;19947;-80
2022/06/24 08:56:20;;;;;;;;;;;19.20;99.90;;;;;;5064689;28;19920;-80
2022/06/24 08:58:46;;;;;;;;;;;19.10;99.90;;;;;;5059565;28;19928;-81
2022/06/24 09:01:15;;;;;;;;;;;19.00;99.90;;;;;;5060621;28;20015;-81
2022/06/24 09:03:42;;;;;;;;;;;19.00;99.90;;;;;;5062603;28;19974;-82
2022/06/24 09:06:12;;;;;;;;;;;18.90;99.90;;;;;;5043514;28;19989;-80
2022/06/24 09:08:37;;;;;;;;;;;18.90;99.90;;;;;;5062304;28;20361;-80
2022/06/24 09:11:07;;;;;;;;;;;18.90;99.90;;;;;;5061953;28;19926;-81
2022/06/24 09:14:02;;;;;;;;;;;18.80;99.90;;;;;;5043568;28;19927;-82
2022/06/24 09:16:27;;;;;;;;;;;18.80;99.90;;;;;;5051177;28;19920;-82
2022/06/24 09:18:54;;;;;;;;;;;18.90;99.90;;;;;;5041604;28;19927;-82
2022/06/24 09:21:23;;;;;;;;;;;18.90;99.90;;;;;;5052155;28;19924;-82
2022/06/24 09:23:59;;;;;;;;;;;18.90;99.90;;;;;;5038313;28;19928;-82
2022/06/24 09:26:44;;;;;;;;;;;18.80;99.90;;;;;;5048028;28;19921;-81
2022/06/24 09:29:12;;;;;;;;;;;18.90;99.90;;;;;;5041623;28;19935;-81
2022/06/24 09:31:38;;;;;;;;;;;19.40;99.90;;;;;;5050711;28;20352;-81
2022/06/24 09:34:10;;;;;;;;;;;19.30;99.90;;;;;;5050788;28;19921;-81
2022/06/24 09:36:36;;;;;;;;;;;19.00;99.90;;;;;;5051713;28;19920;-81
2022/06/24 09:39:04;;;;;;;;;;;19.00;99.90;;;;;;5050950;28;19921;-81
2022/06/24 09:41:30;;;;;;;;;;;19.00;99.90;;;;;;5041793;28;19920;-81
2022/06/24 09:44:01;;;;;;;;;;;19.10;99.90;;;;;;5051713;28;20011;-81
2022/06/24 09:46:27;;;;;;;;;;;19.10;99.90;;;;;;5050496;28;19927;-81
2022/06/24 09:49:01;;;;;;;;;;;19.20;99.90;;;;;;5051594;28;19920;-81
2022/06/24 09:51:27;;;;;;;;;;;19.20;99.90;;;;;;5051588;28;19928;-81
2022/06/24 09:53:54;;;;;;;;;;;19.20;99.90;;;;;;5041329;28;19975;-82
2022/06/24 09:56:19;;;;;;;;;;;19.30;99.90;;;;;;5041320;28;19972;-81
2022/06/24 10:00:40;;;;;;;;;;;19.40;99.90;;;;;;5051581;28;19925;-82
2022/06/24 10:01:35;;;;;;;;;;;19.50;99.90;;;;;;5040413;28;19921;-82
2022/06/24 10:04:05;;;;;;;;;;;19.50;99.90;;;;;;5051191;28;20419;-82
2022/06/24 10:06:33;;;;;;;;;;;19.60;99.90;;;;;;5050710;28;19975;-81
2022/06/24 10:09:01;;;;;;;;;;;19.60;99.90;;;;;;5041156;28;19928;-82
2022/06/24 10:11:27;;;;;;;;;;;19.50;99.90;;;;;;5041294;28;20295;-81
2022/06/24 10:13:54;;;;;;;;;;;19.50;99.90;;;;;;5051739;28;20340;-82
2022/06/24 10:16:20;;;;;;;;;;;19.50;99.90;;;;;;5050427;28;19932;-82
2022/06/24 10:18:47;;;;;;;;;;;19.50;99.90;;;;;;5051224;28;19921;-82
2022/06/24 10:21:16;;;;;;;;;;;19.80;99.90;;;;;;5049699;28;20383;-80
2022/06/24 10:23:48;;;;;;;;;;;19.50;99.90;;;;;;5041339;28;19966;-81
2022/06/24 10:26:14;;;;;;;;;;;19.50;99.90;;;;;;5050956;28;19921;-81
2022/06/24 10:28:58;;;;;;;;;;;19.50;99.90;;;;;;5049829;28;19921;-80
2022/06/24 10:31:53;;;;;;;;;;;19.40;99.90;;;;;;5050484;28;19921;-80
2022/06/24 10:34:22;;;;;;;;;;;19.40;99.90;;;;;;5044322;28;20350;-80
2022/06/24 10:36:51;;;;;;;;;;;19.50;99.90;;;;;;5033226;28;19932;-82
2022/06/24 10:39:17;;;;;;;;;;;19.80;99.90;;;;;;5049809;28;19967;-82
2022/06/24 10:41:44;;;;;;;;;;;19.50;99.90;;;;;;5049175;28;19935;-82
2022/06/24 10:44:18;;;;;;;;;;;19.60;99.90;;;;;;5049608;28;19925;-80
2022/06/24 10:46:44;;;;;;;;;;;19.60;99.90;;;;;;5039723;28;19971;-81
2022/06/24 10:49:09;;;;;;;;;;;19.70;99.90;;;;;;5040271;28;19956;-83
2022/06/24 10:51:35;;;;;;;;;;;20.20;99.90;;;;;;5049100;28;19982;-82
2022/06/24 10:54:03;;;;;;;;;;;19.80;99.90;;;;;;5050487;28;20396;-83
2022/06/24 10:56:38;;;;;;;;;;;19.90;99.90;;;;;;5039508;28;19921;-83
2022/06/24 10:59:03;;;;;;;;;;;19.90;99.90;;;;;;5047281;28;19920;-82
2022/06/24 11:01:29;;;;;;;;;;;20.20;99.90;;;;;;5040593;28;20011;-82
2022/06/24 11:03:55;;;;;;;;;;;20.10;99.90;;;;;;5050234;28;19924;-82
2022/06/24 11:06:21;;;;;;;;;;;20.20;99.90;;;;;;5050402;28;20380;-82
2022/06/24 11:08:46;;;;;;;;;;;20.30;99.90;;;;;;5050787;28;19931;-81
2022/06/24 11:11:24;;;;;;;;;;;20.30;99.90;;;;;;5049997;28;19974;-81
2022/06/24 11:13:50;;;;;;;;;;;20.20;99.90;;;;;;5054786;28;20339;-82
2022/06/24 11:16:16;;;;;;;;;;;20.40;99.90;;;;;;5054120;28;19960;-82
2022/06/24 11:18:42;;;;;;;;;;;20.40;99.90;;;;;;5044140;28;19992;-82
2022/06/24 11:21:08;;;;;;;;;;;20.40;99.90;;;;;;5054118;28;19921;-82
2022/06/24 11:23:35;;;;;;;;;;;20.50;99.90;;;;;;5054136;28;19921;-83
2022/06/24 11:26:02;;;;;;;;;;;20.50;99.90;;;;;;5053716;28;19928;-82
2022/06/24 11:28:32;;;;;;;;;;;20.60;99.90;;;;;;5053871;28;20339;-82
2022/06/24 11:31:16;;;;;;;;;;;20.70;99.90;;;;;;5050858;28;20358;-82
2022/06/24 11:33:42;;;;;;;;;;;20.80;99.90;;;;;;5041908;28;19928;-82
2022/06/24 11:36:08;;;;;;;;;;;20.90;99.90;;;;;;5053724;28;19920;-81
2022/06/24 11:38:36;;;;;;;;;;;20.90;99.90;;;;;;5053388;28;19923;-81
2022/06/24 11:41:02;;;;;;;;;;;21.00;99.90;;;;;;5053851;28;20300;-80
2022/06/24 11:43:27;;;;;;;;;;;21.00;99.90;;;;;;5045416;28;20060;-81
2022/06/24 11:45:57;;;;;;;;;;;21.00;99.90;;;;;;5047837;28;20055;-82
2022/06/24 11:48:24;;;;;;;;;;;21.00;99.90;;;;;;5049860;28;19920;-81
2022/06/24 11:50:51;;;;;;;;;;;21.10;99.90;;;;;;5044292;28;19920;-84
2022/06/24 11:53:21;;;;;;;;;;;21.20;99.90;;;;;;5052805;28;19959;-82
2022/06/24 11:55:50;;;;;;;;;;;21.20;99.90;;;;;;5054426;28;19947;-78
2022/06/24 11:58:17;;;;;;;;;;;21.10;99.90;;;;;;5053202;28;20015;-82
2022/06/24 12:00:43;;;;;;;;;;;21.10;99.90;;;;;;5043860;28;19925;-80
2022/06/24 12:03:09;;;;;;;;;;;21.20;99.90;;;;;;5053169;28;20372;-79
2022/06/24 12:05:37;;;;;;;;;;;21.40;99.90;;;;;;5044612;28;20030;-79
2022/06/24 12:08:03;;;;;;;;;;;21.40;99.90;;;;;;5049588;28;19933;-80
2022/06/24 12:10:29;;;;;;;;;;;21.50;99.90;;;;;;5039343;28;20056;-82
2022/06/24 12:13:06;;;;;;;;;;;21.60;99.90;;;;;;5053719;28;20356;-81
2022/06/24 12:15:31;;;;;;;;;;;21.80;99.90;;;;;;5052884;28;19921;-82
2022/06/24 12:18:00;;;;;;;;;;;21.90;99.90;;;;;;5042855;28;19924;-83
2022/06/24 12:20:26;;;;;;;;;;;21.70;99.90;;;;;;5053177;28;20011;-83
2022/06/24 12:23:11;;;;;;;;;;;22.10;99.90;;;;;;5052086;28;19920;-82
2022/06/24 12:25:40;;;;;;;;;;;22.00;99.90;;;;;;5043803;28;19920;-83
2022/06/24 12:28:15;;;;;;;;;;;22.10;99.90;;;;;;5052083;28;20726;-83
2022/06/24 12:30:40;;;;;;;;;;;22.10;99.90;;;;;;5053266;28;20380;-83
2022/06/24 12:33:10;;;;;;;;;;;22.00;99.90;;;;;;5052531;28;19936;-81
2022/06/24 12:35:43;;;;;;;;;;;22.10;99.90;;;;;;5046396;28;20652;-81
2022/06/24 12:38:12;;;;;;;;;;;22.00;99.90;;;;;;5030992;28;20603;-80
2022/06/24 12:40:39;;;;;;;;;;;22.00;99.90;;;;;;5049639;28;19928;-81
2022/06/24 12:43:05;;;;;;;;;;;22.00;99.90;;;;;;5050630;28;19928;-82
2022/06/24 12:45:37;;;;;;;;;;;22.20;99.90;;;;;;5052009;28;19955;-77
2022/06/24 12:50:59;;;;;;;;;;;22.40;99.90;;;;;;5049799;28;20355;-77
2022/06/24 12:53:25;;;;;;;;;;;22.60;99.90;;;;;;5050303;28;20011;-81
2022/06/24 12:55:52;;;;;;;;;;;22.60;99.90;;;;;;5041725;28;20324;-80
2022/06/24 12:58:18;;;;;;;;;;;22.80;99.90;;;;;;5051164;28;19921;-80
2022/06/24 13:00:43;;;;;;;;;;;23.00;99.90;;;;;;5051011;28;19982;-77
2022/06/24 13:03:09;;;;;;;;;;;23.20;99.90;;;;;;5050240;28;19924;-76
2022/06/24 13:05:35;;;;;;;;;;;23.20;99.90;;;;;;5051519;28;19968;-77
2022/06/24 13:08:00;;;;;;;;;;;23.20;99.90;;;;;;5042258;28;19998;-78
2022/06/24 13:10:26;;;;;;;;;;;23.30;99.90;;;;;;5041289;28;19921;-77
2022/06/24 13:12:52;;;;;;;;;;;23.20;99.90;;;;;;5051964;28;19921;-78
2022/06/24 13:15:17;;;;;;;;;;;23.30;99.90;;;;;;5038329;28;19920;-79
2022/06/24 13:17:43;;;;;;;;;;;23.40;99.90;;;;;;5041057;28;19928;-78
2022/06/24 13:20:10;;;;;;;;;;;23.70;99.90;;;;;;5050984;28;19924;-79
2022/06/24 13:22:36;;;;;;;;;;;23.80;99.90;;;;;;5041821;28;19929;-79
2022/06/24 13:25:01;;;;;;;;;;;24.10;99.90;;;;;;5036982;28;19921;-77
2022/06/24 13:27:27;;;;;;;;;;;24.20;99.90;;;;;;5051205;28;20058;-77
2022/06/24 13:29:52;;;;;;;;;;;24.50;99.90;;;;;;5040150;28;20395;-76
2022/06/24 13:32:18;;;;;;;;;;;24.70;99.90;;;;;;5050266;28;19991;-75
2022/06/24 13:34:43;;;;;;;;;;;24.70;99.90;;;;;;5041551;28;19925;-75
2022/06/24 13:37:09;;;;;;;;;;;24.70;99.90;;;;;;5024209;28;19924;-75
2022/06/24 13:39:35;;;;;;;;;;;24.80;99.90;;;;;;5050516;28;19921;-74
2022/06/24 13:42:01;;;;;;;;;;;24.80;99.90;;;;;;5051008;28;19929;-75
2022/06/24 13:44:26;;;;;;;;;;;24.90;99.90;;;;;;5041219;28;19920;-75
2022/06/24 13:46:54;;;;;;;;;;;25.10;99.90;;;;;;5041415;28;20376;-75
2022/06/24 13:49:19;;;;;;;;;;;25.20;99.90;;;;;;5050454;28;20342;-75
2022/06/24 13:51:45;;;;;;;;;;;25.10;99.90;;;;;;5050925;28;19921;-76
2022/06/24 13:54:16;;;;;;;;;;;25.00;99.90;;;;;;5040229;28;19928;-76
2022/06/24 13:56:42;;;;;;;;;;;25.20;99.90;;;;;;5050287;28;19917;-76
2022/06/24 13:59:08;;;;;;;;;;;25.30;99.90;;;;;;5046759;28;19921;-72
2022/06/24 14:01:33;;;;;;;;;;;25.40;99.90;;;;;;5050274;28;20364;-73
2022/06/24 14:03:59;;;;;;;;;;;25.50;99.90;;;;;;5050718;28;19979;-74
2022/06/24 14:06:24;;;;;;;;;;;25.50;99.90;;;;;;5040829;28;19925;-74
2022/06/24 14:08:50;;;;;;;;;;;25.60;99.90;;;;;;5051337;28;19995;-73
2022/06/24 14:11:17;;;;;;;;;;;25.60;99.90;;;;;;5041564;28;19920;-73
2022/06/24 14:13:43;;;;;;;;;;;25.60;99.90;;;;;;5040095;28;19978;-72
2022/06/24 14:16:08;;;;;;;;;;;25.50;99.90;;;;;;5051124;28;20330;-78
2022/06/24 14:18:35;;;;;;;;;;;25.50;99.90;;;;;;5058704;28;19920;-74
2022/06/24 14:21:02;;;;;;;;;;;25.40;99.90;;;;;;5057700;28;19924;-75
2022/06/24 14:26:12;;;;;;;;;;;25.30;99.90;;;;;;5059195;28;19920;-75
2022/06/24 14:28:37;;;;;;;;;;;25.20;99.90;;;;;;5060635;28;19916;-74